createdAt,value
2022-08-29T00:00:22.915Z,22.13
2022-08-29T00:02:53.148Z,22.30
2022-08-29T00:05:25.024Z,22.10
2022-08-29T00:07:55.540Z,22.37
2022-08-29T00:10:23.969Z,23.70
2022-08-29T00:12:52.253Z,21.80
2022-08-29T00:15:21.965Z,21.83
2022-08-29T00:17:49.983Z,22.37
2022-08-29T00:20:22.909Z,20.80
2022-08-29T00:22:58.697Z,22.87
2022-08-29T00:25:28.099Z,22.07
2022-08-29T00:27:56.110Z,21.30
2022-08-29T00:30:24.960Z,20.90
2022-08-29T00:32:53.259Z,21.43
2022-08-29T00:35:24.142Z,20.50
2022-08-29T00:37:55.008Z,22.83
2022-08-29T00:40:27.362Z,21.67
2022-08-29T00:42:55.827Z,19.30
2022-08-29T00:45:24.259Z,22.67
2022-08-29T00:47:56.999Z,21.17
2022-08-29T00:50:29.485Z,20.53
2022-08-29T00:52:58.976Z,30.03
2022-08-29T00:55:32.014Z,29.50
2022-08-29T00:58:03.210Z,19.83
2022-08-29T01:00:32.713Z,14.80
2022-08-29T01:03:00.633Z,17.27
2022-08-29T01:05:28.977Z,30.53
2022-08-29T01:07:57.423Z,23.37
2022-08-29T01:10:43.113Z,22.17
2022-08-29T01:13:13.330Z,23.03
2022-08-29T01:15:44.181Z,16.03
2022-08-29T01:18:15.901Z,15.60
2022-08-29T01:20:52.754Z,14.50
2022-08-29T01:23:24.900Z,15.90
2022-08-29T01:25:55.588Z,15.30
2022-08-29T01:28:26.298Z,14.87
2022-08-29T01:31:02.587Z,15.00
2022-08-29T01:33:42.669Z,16.10
2022-08-29T01:36:14.156Z,14.13
2022-08-29T01:38:42.094Z,16.90
2022-08-29T01:41:12.687Z,15.57
2022-08-29T01:43:42.998Z,20.43
2022-08-29T01:46:11.956Z,21.33
2022-08-29T01:48:40.810Z,31.50
2022-08-29T01:51:09.372Z,39.30
2022-08-29T01:53:37.981Z,35.93
2022-08-29T01:56:13.001Z,29.93
2022-08-29T01:58:41.033Z,28.03
2022-08-29T02:01:10.597Z,35.87
2022-08-29T02:03:38.438Z,43.50
2022-08-29T02:06:09.630Z,38.90
2022-08-29T02:08:37.759Z,28.73
2022-08-29T02:11:10.118Z,31.60
2022-08-29T02:13:41.140Z,28.93
2022-08-29T02:16:09.337Z,30.00
2022-08-29T02:18:37.240Z,34.17
2022-08-29T02:21:05.919Z,30.13
2022-08-29T02:23:35.957Z,38.80
2022-08-29T02:26:04.865Z,50.60
2022-08-29T02:28:33.881Z,54.10
2022-08-29T02:31:03.728Z,49.17
2022-08-29T02:33:32.659Z,61.20
2022-08-29T02:36:01.227Z,53.97
2022-08-29T02:38:29.949Z,50.43
2022-08-29T02:40:58.312Z,50.47
2022-08-29T02:43:26.574Z,42.10
2022-08-29T02:45:55.014Z,33.87
2022-08-29T02:48:25.191Z,33.73
2022-08-29T02:50:55.486Z,30.03
2022-08-29T02:53:26.777Z,21.63
2022-08-29T02:55:54.777Z,19.83
2022-08-29T02:58:24.742Z,19.43
2022-08-29T03:00:54.175Z,19.70
2022-08-29T03:03:22.441Z,25.97
2022-08-29T03:05:52.154Z,21.07
2022-08-29T03:08:19.930Z,20.37
2022-08-29T03:10:48.253Z,20.70
2022-08-29T03:13:16.383Z,18.40
2022-08-29T03:15:45.488Z,17.60
2022-08-29T03:18:14.973Z,17.83
2022-08-29T03:20:43.906Z,17.87
2022-08-29T03:23:13.863Z,19.37
2022-08-29T03:25:41.903Z,18.17
2022-08-29T03:28:10.151Z,18.73
2022-08-29T03:30:37.885Z,18.00
2022-08-29T03:33:09.908Z,18.43
2022-08-29T03:35:39.808Z,18.37
2022-08-29T03:38:08.971Z,18.63
2022-08-29T03:40:38.495Z,17.53
2022-08-29T03:43:06.625Z,17.37
2022-08-29T03:45:34.591Z,18.37
2022-08-29T03:48:02.438Z,16.87
2022-08-29T03:50:30.693Z,17.17
2022-08-29T03:52:59.874Z,18.33
2022-08-29T03:55:27.895Z,17.70
2022-08-29T03:57:57.274Z,18.33
2022-08-29T04:00:25.728Z,17.30
2022-08-29T04:02:55.670Z,17.20
2022-08-29T04:05:24.184Z,17.43
2022-08-29T04:07:54.069Z,17.50
2022-08-29T04:10:24.216Z,16.43
2022-08-29T04:12:54.677Z,15.57
2022-08-29T04:15:24.999Z,16.23
2022-08-29T04:17:54.615Z,16.63
2022-08-29T04:20:25.424Z,16.50
2022-08-29T04:22:54.483Z,15.43
2022-08-29T04:25:23.715Z,16.10
2022-08-29T04:27:51.935Z,14.77
2022-08-29T04:30:22.344Z,17.20
2022-08-29T04:32:51.706Z,17.70
2022-08-29T04:35:19.610Z,20.13
2022-08-29T04:37:47.460Z,22.63
2022-08-29T04:40:19.724Z,28.40
2022-08-29T04:42:48.423Z,25.53
2022-08-29T04:45:19.795Z,20.57
2022-08-29T04:47:48.017Z,17.13
2022-08-29T04:50:20.504Z,13.73
2022-08-29T04:52:49.014Z,17.40
2022-08-29T04:55:21.651Z,20.47
2022-08-29T04:57:52.120Z,21.93
2022-08-29T05:00:24.199Z,20.37
2022-08-29T05:02:51.979Z,21.17
2022-08-29T05:05:21.811Z,25.17
2022-08-29T05:07:49.659Z,23.33
2022-08-29T05:10:20.038Z,21.33
2022-08-29T05:12:48.389Z,17.33
2022-08-29T05:15:17.674Z,18.73
2022-08-29T05:17:46.210Z,16.67
2022-08-29T05:20:14.935Z,18.27
2022-08-29T05:22:44.288Z,19.67
2022-08-29T05:25:18.024Z,24.30
2022-08-29T05:27:46.250Z,35.87
2022-08-29T05:30:14.820Z,35.57
2022-08-29T05:32:42.583Z,32.93
2022-08-29T05:35:11.622Z,32.17
2022-08-29T05:37:39.428Z,33.43
2022-08-29T05:40:10.029Z,39.37
2022-08-29T05:42:37.848Z,36.63
2022-08-29T05:45:06.831Z,37.53
2022-08-29T05:47:34.850Z,34.33
2022-08-29T05:50:02.750Z,36.97
2022-08-29T05:52:30.566Z,34.33
2022-08-29T05:54:58.297Z,34.50
2022-08-29T05:57:27.664Z,31.77
2022-08-29T05:59:56.223Z,28.27
2022-08-29T06:02:25.340Z,32.50
2022-08-29T06:04:54.178Z,36.23
2022-08-29T06:07:22.110Z,46.37
2022-08-29T06:09:53.187Z,45.85
2022-08-29T06:12:21.144Z,49.33
2022-08-29T06:14:53.659Z,53.00
2022-08-29T06:17:21.681Z,48.47
2022-08-29T06:19:51.914Z,49.55
2022-08-29T06:22:22.730Z,51.08
2022-08-29T06:24:55.271Z,47.08
2022-08-29T06:27:26.393Z,62.05
2022-08-29T06:29:58.166Z,50.85
2022-08-29T06:32:29.375Z,52.47
2022-08-29T06:34:57.930Z,61.47
2022-08-29T06:37:26.277Z,57.35
2022-08-29T06:39:54.137Z,58.17
2022-08-29T06:42:25.700Z,57.47
2022-08-29T06:44:58.247Z,55.92
2022-08-29T06:47:26.835Z,52.20
2022-08-29T06:49:55.090Z,58.08
2022-08-29T06:52:23.041Z,65.07
2022-08-29T06:54:50.945Z,59.28
2022-08-29T06:57:20.580Z,51.40
2022-08-29T06:59:55.638Z,61.55
2022-08-29T07:02:25.564Z,52.45
2022-08-29T07:04:53.392Z,52.40
2022-08-29T07:07:21.123Z,47.75
2022-08-29T07:09:49.057Z,49.15
2022-08-29T07:12:17.044Z,61.45
2022-08-29T07:14:44.986Z,60.28
2022-08-29T07:17:12.853Z,56.20
2022-08-29T07:19:55.307Z,54.08
2022-08-29T07:22:23.203Z,50.80
2022-08-29T07:24:51.049Z,55.13
2022-08-29T07:27:19.450Z,50.65
2022-08-29T07:29:50.662Z,50.53
2022-08-29T07:32:21.680Z,51.05
2022-08-29T07:34:55.827Z,66.18
2022-08-29T07:37:25.817Z,60.20
2022-08-29T07:39:54.430Z,62.20
2022-08-29T07:42:22.466Z,57.72
2022-08-29T07:44:50.809Z,55.95
2022-08-29T07:47:18.637Z,59.20
2022-08-29T07:49:46.435Z,60.17
2022-08-29T07:52:14.404Z,56.65
2022-08-29T07:54:43.668Z,49.00
2022-08-29T07:57:11.824Z,47.38
2022-08-29T07:59:39.665Z,48.45
2022-08-29T08:02:07.741Z,47.05
2022-08-29T08:04:36.638Z,46.33
2022-08-29T08:07:05.158Z,47.03
2022-08-29T08:09:41.903Z,46.50
2022-08-29T08:12:12.496Z,46.40
2022-08-29T08:14:40.364Z,46.53
2022-08-29T08:17:08.094Z,43.17
2022-08-29T08:19:35.819Z,44.45
2022-08-29T08:22:03.789Z,43.63
2022-08-29T08:24:32.855Z,43.15
2022-08-29T08:27:01.169Z,44.33
2022-08-29T08:29:30.676Z,50.55
2022-08-29T08:32:00.139Z,43.15
2022-08-29T08:34:29.439Z,43.22
2022-08-29T08:36:57.599Z,43.45
2022-08-29T08:39:25.481Z,46.67
2022-08-29T08:41:58.437Z,42.42
2022-08-29T08:44:56.882Z,43.40
2022-08-29T08:47:27.780Z,43.90
2022-08-29T08:50:01.634Z,46.15
2022-08-29T08:52:42.239Z,47.78
2022-08-29T08:55:19.155Z,47.50
2022-08-29T08:57:53.910Z,44.70
2022-08-29T09:00:23.257Z,46.05
2022-08-29T09:03:05.552Z,45.55
2022-08-29T09:05:49.243Z,47.63
2022-08-29T09:08:26.078Z,45.38
2022-08-29T09:11:01.357Z,45.90
2022-08-29T09:13:43.931Z,46.08
2022-08-29T09:16:25.145Z,47.25
2022-08-29T09:18:54.170Z,50.25
2022-08-29T09:21:40.696Z,55.83
2022-08-29T09:24:23.080Z,57.67
2022-08-29T09:26:50.980Z,66.93
2022-08-29T09:29:21.278Z,70.47
2022-08-29T09:32:07.853Z,84.85
2022-08-29T09:37:29.822Z,70.20
2022-08-29T09:40:02.808Z,61.38
2022-08-29T09:42:34.037Z,55.92
2022-08-29T09:45:08.891Z,49.15
2022-08-29T09:47:38.636Z,46.38
2022-08-29T09:50:13.391Z,48.63
2022-08-29T09:52:52.107Z,47.65
2022-08-29T09:55:29.976Z,46.70
2022-08-29T09:58:01.486Z,49.65
2022-08-29T10:00:34.123Z,51.95
2022-08-29T10:03:06.003Z,49.42
2022-08-29T10:05:44.438Z,49.42
2022-08-29T10:08:30.866Z,49.03
2022-08-29T10:11:03.861Z,48.45
2022-08-29T10:13:41.183Z,52.97
2022-08-29T10:16:18.840Z,45.03
2022-08-29T10:18:53.936Z,43.80
2022-08-29T10:21:38.569Z,38.85
2022-08-29T10:24:37.062Z,42.17
2022-08-29T10:27:25.453Z,40.80
2022-08-29T10:30:04.864Z,40.20
2022-08-29T10:33:08.367Z,40.60
2022-08-29T10:35:41.586Z,45.05
2022-08-29T10:38:19.787Z,41.92
2022-08-29T10:40:51.805Z,43.13
2022-08-29T10:43:33.266Z,46.90
2022-08-29T10:46:11.628Z,45.90
2022-08-29T10:48:49.210Z,47.00
2022-08-29T10:51:24.142Z,44.17
2022-08-29T10:53:58.824Z,47.17
2022-08-29T10:56:34.828Z,46.75
2022-08-29T10:59:13.583Z,46.08
2022-08-29T11:01:46.955Z,42.28
2022-08-29T11:04:20.086Z,45.78
2022-08-29T11:07:00.756Z,44.88
2022-08-29T11:09:32.690Z,44.08
2022-08-29T11:12:08.019Z,42.35
2022-08-29T11:14:41.330Z,48.42
2022-08-29T11:17:14.101Z,43.38
2022-08-29T11:20:02.060Z,44.70
2022-08-29T11:22:37.373Z,48.00
2022-08-29T11:25:10.726Z,47.72
2022-08-29T11:27:49.790Z,45.53
2022-08-29T11:30:24.721Z,43.88
2022-08-29T11:33:04.942Z,42.88
2022-08-29T11:35:44.251Z,45.63
2022-08-29T11:38:50.650Z,45.63
2022-08-29T11:41:30.507Z,44.42
2022-08-29T11:44:11.523Z,49.35
2022-08-29T11:46:43.932Z,48.13
2022-08-29T11:49:36.718Z,46.47
2022-08-29T11:52:20.284Z,49.13
2022-08-29T11:55:16.092Z,50.30
2022-08-29T11:58:07.945Z,54.15
2022-08-29T12:00:47.241Z,50.92
2022-08-29T12:03:54.870Z,49.60
2022-08-29T12:06:44.251Z,45.95
2022-08-29T12:09:40.989Z,49.53
2022-08-29T12:12:45.933Z,51.42
2022-08-29T12:15:52.970Z,52.28
2022-08-29T12:18:44.898Z,49.03
2022-08-29T12:21:42.144Z,47.22
2022-08-29T12:24:29.993Z,44.78
2022-08-29T12:26:58.020Z,44.08
2022-08-29T12:29:31.407Z,55.40
2022-08-29T12:32:27.318Z,50.90
2022-08-29T12:35:36.397Z,47.03
2022-08-29T12:38:16.512Z,49.63
2022-08-29T12:41:05.838Z,47.75
2022-08-29T12:43:38.012Z,47.38
2022-08-29T12:46:14.088Z,45.40
2022-08-29T12:48:56.129Z,45.95
2022-08-29T12:51:34.705Z,51.58
2022-08-29T12:54:02.748Z,47.60
2022-08-29T12:56:30.907Z,47.47
2022-08-29T12:59:01.190Z,46.50
2022-08-29T13:01:35.669Z,44.85
2022-08-29T13:04:13.128Z,43.30
2022-08-29T13:06:52.745Z,43.05
2022-08-29T13:09:29.701Z,46.08
2022-08-29T13:12:19.927Z,45.90
2022-08-29T13:14:51.428Z,49.00
2022-08-29T13:17:22.514Z,50.15
2022-08-29T13:20:28.468Z,51.60
2022-08-29T13:23:09.454Z,54.15
2022-08-29T13:25:45.493Z,48.67
2022-08-29T13:28:22.027Z,54.17
2022-08-29T13:31:09.176Z,52.53
2022-08-29T13:33:39.236Z,47.08
2022-08-29T13:36:33.805Z,53.75
2022-08-29T13:39:41.460Z,51.58
2022-08-29T13:42:26.645Z,44.78
2022-08-29T13:45:03.719Z,48.25
2022-08-29T13:47:33.899Z,47.63
2022-08-29T13:50:05.345Z,49.47
2022-08-29T13:52:33.379Z,48.72
2022-08-29T13:55:04.392Z,46.05
2022-08-29T13:57:32.475Z,45.08
2022-08-29T14:00:00.555Z,48.13
2022-08-29T14:02:28.775Z,49.85
2022-08-29T14:04:57.373Z,48.20
2022-08-29T14:07:28.197Z,51.45
2022-08-29T14:09:56.592Z,52.83
2022-08-29T14:12:33.436Z,49.92
2022-08-29T14:15:08.157Z,46.63
2022-08-29T14:17:37.818Z,46.58
2022-08-29T14:20:09.656Z,46.55
2022-08-29T14:22:39.130Z,46.42
2022-08-29T14:25:09.069Z,45.97
2022-08-29T14:27:39.264Z,47.72
2022-08-29T14:30:10.181Z,49.38
2022-08-29T14:32:38.591Z,48.28
2022-08-29T14:35:07.863Z,43.53
2022-08-29T14:37:37.102Z,46.22
2022-08-29T14:40:08.904Z,47.45
2022-08-29T14:42:39.795Z,49.13
2022-08-29T14:45:11.902Z,47.03
2022-08-29T14:47:47.477Z,49.15
2022-08-29T14:50:17.640Z,46.42
2022-08-29T14:52:47.688Z,47.35
2022-08-29T14:55:16.849Z,49.45
2022-08-29T14:57:46.536Z,46.75
2022-08-29T15:00:18.123Z,47.17
2022-08-29T15:02:46.685Z,45.42
2022-08-29T15:05:18.258Z,43.50
2022-08-29T15:07:47.601Z,43.90
2022-08-29T15:10:18.270Z,45.58
2022-08-29T15:12:52.376Z,46.55
2022-08-29T15:15:28.514Z,47.65
2022-08-29T15:17:57.303Z,47.17
2022-08-29T15:20:44.826Z,46.90
2022-08-29T15:23:13.583Z,49.60
2022-08-29T15:25:45.141Z,48.08
2022-08-29T15:28:24.974Z,45.63
2022-08-29T15:30:53.359Z,45.30
2022-08-29T15:33:24.386Z,43.85
2022-08-29T15:35:52.369Z,45.50
2022-08-29T15:38:20.538Z,48.92
2022-08-29T15:40:48.580Z,44.13
2022-08-29T15:43:16.499Z,46.30
2022-08-29T15:45:46.293Z,44.85
2022-08-29T15:48:14.685Z,45.58
2022-08-29T15:50:43.002Z,46.28
2022-08-29T15:53:11.801Z,46.00
2022-08-29T15:55:44.225Z,45.45
2022-08-29T15:58:12.338Z,43.95
2022-08-29T16:00:40.648Z,45.30
2022-08-29T16:03:09.908Z,46.42
2022-08-29T16:05:39.193Z,46.47
2022-08-29T16:08:07.233Z,48.83
2022-08-29T16:10:38.979Z,48.00
2022-08-29T16:13:07.157Z,51.00
2022-08-29T16:15:35.068Z,53.53
2022-08-29T16:18:04.557Z,51.95
2022-08-29T16:20:35.253Z,51.22
2022-08-29T16:23:03.758Z,50.50
2022-08-29T16:25:34.260Z,52.10
2022-08-29T16:28:05.959Z,49.65
2022-08-29T16:30:34.714Z,46.28
2022-08-29T16:33:03.729Z,45.38
2022-08-29T16:35:33.129Z,48.58
2022-08-29T16:38:02.480Z,48.45
2022-08-29T16:40:33.098Z,47.70
2022-08-29T16:43:02.004Z,51.60
2022-08-29T16:45:30.499Z,52.28
2022-08-29T16:47:58.548Z,40.80
2022-08-29T16:50:27.330Z,35.72
2022-08-29T16:52:57.407Z,34.25
2022-08-29T16:55:26.113Z,28.83
2022-08-29T16:58:12.031Z,24.55
2022-08-29T17:00:39.937Z,25.00
2022-08-29T17:03:08.139Z,25.58
2022-08-29T17:05:36.140Z,24.58
2022-08-29T17:08:04.795Z,24.80
2022-08-29T17:10:31.733Z,27.48
2022-08-29T17:12:58.437Z,27.55
2022-08-29T17:15:25.164Z,27.60
2022-08-29T17:17:53.514Z,27.70
2022-08-29T17:20:21.411Z,26.88
2022-08-29T17:22:49.458Z,26.63
2022-08-29T17:25:22.631Z,26.02
2022-08-29T17:28:14.274Z,26.08
2022-08-29T17:30:40.463Z,25.33
2022-08-29T17:33:10.932Z,24.02
2022-08-29T17:35:39.675Z,22.25
2022-08-29T17:38:08.493Z,19.02
2022-08-29T17:40:38.735Z,18.77
2022-08-29T17:43:08.732Z,18.63
2022-08-29T17:45:38.986Z,17.87
2022-08-29T17:48:06.821Z,17.43
2022-08-29T17:50:34.865Z,18.00
2022-08-29T17:53:03.063Z,16.53
2022-08-29T17:55:32.280Z,16.03
2022-08-29T17:58:02.251Z,17.53
2022-08-29T18:00:31.714Z,16.97
2022-08-29T18:03:00.159Z,18.07
2022-08-29T18:05:28.533Z,19.90
2022-08-29T18:07:57.247Z,21.93
2022-08-29T18:10:26.339Z,23.43
2022-08-29T18:12:54.452Z,24.30
2022-08-29T18:15:24.110Z,26.07
2022-08-29T18:17:53.908Z,27.63
2022-08-29T18:20:23.330Z,28.10
2022-08-29T18:22:51.188Z,29.17
2022-08-29T18:25:22.512Z,29.00
2022-08-29T18:27:51.522Z,28.80
2022-08-29T18:30:20.692Z,29.40
2022-08-29T18:32:50.251Z,26.90
2022-08-29T18:35:19.015Z,29.00
2022-08-29T18:37:46.806Z,27.50
2022-08-29T18:40:14.806Z,29.50
2022-08-29T18:42:42.725Z,28.10
2022-08-29T18:45:11.460Z,29.13
2022-08-29T18:47:39.829Z,29.63
2022-08-29T18:50:27.417Z,35.67
2022-08-29T18:52:56.410Z,32.33
2022-08-29T18:55:24.970Z,32.60
2022-08-29T18:57:54.741Z,34.13
2022-08-29T19:00:25.113Z,34.40
2022-08-29T19:02:53.778Z,34.37
2022-08-29T19:05:24.439Z,32.87
2022-08-29T19:07:52.584Z,30.37
2022-08-29T19:10:21.064Z,30.60
2022-08-29T19:12:50.370Z,30.83
2022-08-29T19:15:19.562Z,29.53
2022-08-29T19:17:47.876Z,27.27
2022-08-29T19:20:44.660Z,25.73
2022-08-29T19:23:13.926Z,24.57
2022-08-29T19:25:42.350Z,24.53
2022-08-29T19:28:11.537Z,23.27
2022-08-29T19:30:39.939Z,23.97
2022-08-29T19:33:08.874Z,21.10
2022-08-29T19:35:38.306Z,20.37
2022-08-29T19:38:06.988Z,21.43
2022-08-29T19:40:39.210Z,20.60
2022-08-29T19:43:13.693Z,19.30
2022-08-29T19:45:44.384Z,19.93
2022-08-29T19:48:15.077Z,19.17
2022-08-29T19:50:47.752Z,19.30
2022-08-29T19:53:19.968Z,16.43
2022-08-29T19:55:56.650Z,17.83
2022-08-29T19:58:31.257Z,15.50
2022-08-29T20:01:00.836Z,15.73
2022-08-29T20:03:29.120Z,15.13
2022-08-29T20:05:57.389Z,15.47
2022-08-29T20:08:25.346Z,15.27
2022-08-29T20:10:54.501Z,15.37
2022-08-29T20:13:23.771Z,14.70
2022-08-29T20:15:52.601Z,14.93
2022-08-29T20:18:21.465Z,14.70
2022-08-29T20:20:50.288Z,15.47
2022-08-29T20:23:18.346Z,14.67
2022-08-29T20:25:46.839Z,14.67
2022-08-29T20:28:15.871Z,13.80
2022-08-29T20:30:45.994Z,15.60
2022-08-29T20:33:18.578Z,14.93
2022-08-29T20:36:04.245Z,14.37
2022-08-29T20:38:33.318Z,15.03
2022-08-29T20:41:01.847Z,14.80
2022-08-29T20:43:30.422Z,15.53
2022-08-29T20:46:00.036Z,15.57
2022-08-29T20:48:31.239Z,15.93
2022-08-29T20:51:01.512Z,16.00
2022-08-29T20:53:32.653Z,16.50
2022-08-29T20:56:01.548Z,15.50
2022-08-29T20:58:30.242Z,15.90
2022-08-29T21:01:01.370Z,16.03
2022-08-29T21:03:46.958Z,16.20
2022-08-29T21:06:19.153Z,20.27
2022-08-29T21:08:47.301Z,18.83
2022-08-29T21:11:16.098Z,19.07
2022-08-29T21:13:45.108Z,19.17
2022-08-29T21:16:14.480Z,20.23
2022-08-29T21:18:43.389Z,19.97
2022-08-29T21:21:13.245Z,21.47
2022-08-29T21:23:42.190Z,21.57
2022-08-29T21:26:11.481Z,21.40
2022-08-29T21:28:41.071Z,23.40
2022-08-29T21:31:13.472Z,23.47
2022-08-29T21:33:45.924Z,22.60
2022-08-29T21:36:16.247Z,24.93
2022-08-29T21:38:44.484Z,24.63
2022-08-29T21:41:14.242Z,24.13
2022-08-29T21:43:43.416Z,24.13
2022-08-29T21:46:16.872Z,23.13
2022-08-29T21:48:47.860Z,23.53
2022-08-29T21:51:18.922Z,23.57
2022-08-29T21:53:47.832Z,22.47
2022-08-29T21:56:16.564Z,21.60
2022-08-29T21:58:45.956Z,22.80
2022-08-29T22:01:14.515Z,21.80
2022-08-29T22:03:43.106Z,20.43
2022-08-29T22:06:15.510Z,21.73
2022-08-29T22:08:46.122Z,20.50
2022-08-29T22:11:17.795Z,21.73
2022-08-29T22:13:46.395Z,20.50
2022-08-29T22:16:31.357Z,19.60
2022-08-29T22:19:02.460Z,18.17
2022-08-29T22:21:35.238Z,18.67
2022-08-29T22:24:04.561Z,18.70
2022-08-29T22:26:32.658Z,18.97
2022-08-29T22:29:01.607Z,19.27
2022-08-29T22:31:31.741Z,20.20
2022-08-29T22:34:00.659Z,22.67
2022-08-29T22:36:29.003Z,21.57
2022-08-29T22:39:00.494Z,20.87
2022-08-29T22:41:28.998Z,20.90
2022-08-29T22:44:37.654Z,21.93
2022-08-29T22:46:47.392Z,22.17
2022-08-29T22:49:15.571Z,22.23
2022-08-29T22:51:43.909Z,22.70
2022-08-29T22:54:30.873Z,23.37
2022-08-29T22:57:01.032Z,24.93
2022-08-29T22:59:29.198Z,26.20
2022-08-29T23:01:57.626Z,25.37
2022-08-29T23:04:25.685Z,24.90
2022-08-29T23:06:54.622Z,25.47
2022-08-29T23:09:24.447Z,24.73
2022-08-29T23:11:52.598Z,26.93
2022-08-29T23:14:22.449Z,26.50
2022-08-29T23:16:51.649Z,26.73
2022-08-29T23:19:19.903Z,28.17
2022-08-29T23:21:47.996Z,27.90
2022-08-29T23:24:16.899Z,27.03
2022-08-29T23:26:46.974Z,28.20
2022-08-29T23:29:15.357Z,28.43
2022-08-29T23:31:43.263Z,28.20
2022-08-29T23:34:11.393Z,27.70
2022-08-29T23:36:39.773Z,28.63
2022-08-29T23:39:08.753Z,28.87
2022-08-29T23:41:37.358Z,28.47
2022-08-29T23:44:07.321Z,29.53
2022-08-29T23:46:37.379Z,29.20
2022-08-29T23:49:06.059Z,27.60
2022-08-29T23:51:34.579Z,27.53
2022-08-29T23:54:02.482Z,29.27
2022-08-29T23:56:30.635Z,26.87
2022-08-29T23:58:58.977Z,27.13
